Terminal Aerodrome Forecast
Issued by NWS

Home | Current Version | Previous Version | Text Only | Print | Product List | Glossary On
Versions: 1 2 3 4 5 6 7 8 9 10 11 12 13 14 15 16 17 18 19 20 21
000
FTUS43 KDLH 300532
TAFBRD
TAF
KBRD 300532Z 3006/3106 19004KT P6SM SCT250
     FM301000 17003KT 4SM BR SCT003
      TEMPO 3010/3014 4SM BR OVC003
     FM301500 18012KT P6SM SCT050=

USA.gov is the U.S. government's official web portal to all federal, state and local government web resources and services.